sensor_id;sensor_type;location;lat;lon;timestamp;P1;durP1;ratioP1;P2;durP2;ratioP2
5553;SDS011;2800;49.528;8.666;2022-11-25T00:00:53;14.63;;;5.37;;
5553;SDS011;2800;49.528;8.666;2022-11-25T00:03:18;22.57;;;5.80;;
5553;SDS011;2800;49.528;8.666;2022-11-25T00:05:44;16.13;;;4.77;;
5553;SDS011;2800;49.528;8.666;2022-11-25T00:08:09;15.87;;;4.60;;
5553;SDS011;2800;49.528;8.666;2022-11-25T00:10:35;14.90;;;4.83;;
5553;SDS011;2800;49.528;8.666;2022-11-25T00:13:01;12.03;;;5.00;;
5553;SDS011;2800;49.528;8.666;2022-11-25T00:15:26;15.77;;;5.23;;
5553;SDS011;2800;49.528;8.666;2022-11-25T00:17:52;17.77;;;4.87;;
5553;SDS011;2800;49.528;8.666;2022-11-25T00:20:17;15.87;;;5.33;;
5553;SDS011;2800;49.528;8.666;2022-11-25T00:22:45;13.67;;;5.10;;
5553;SDS011;2800;49.528;8.666;2022-11-25T00:25:10;10.47;;;4.27;;
5553;SDS011;2800;49.528;8.666;2022-11-25T00:27:36;16.93;;;4.80;;
5553;SDS011;2800;49.528;8.666;2022-11-25T00:30:02;17.03;;;4.83;;
5553;SDS011;2800;49.528;8.666;2022-11-25T00:32:28;13.83;;;4.70;;
5553;SDS011;2800;49.528;8.666;2022-11-25T00:34:53;16.70;;;5.10;;
5553;SDS011;2800;49.528;8.666;2022-11-25T00:37:19;14.50;;;4.60;;
5553;SDS011;2800;49.528;8.666;2022-11-25T00:39:44;16.17;;;4.80;;
5553;SDS011;2800;49.528;8.666;2022-11-25T00:42:10;14.00;;;4.47;;
5553;SDS011;2800;49.528;8.666;2022-11-25T00:44:54;14.93;;;4.33;;
5553;SDS011;2800;49.528;8.666;2022-11-25T00:47:19;18.43;;;4.87;;
5553;SDS011;2800;49.528;8.666;2022-11-25T00:49:46;21.10;;;4.83;;
5553;SDS011;2800;49.528;8.666;2022-11-25T00:52:17;17.00;;;4.40;;
5553;SDS011;2800;49.528;8.666;2022-11-25T00:54:45;18.23;;;4.60;;
5553;SDS011;2800;49.528;8.666;2022-11-25T00:57:14;12.47;;;4.43;;
5553;SDS011;2800;49.528;8.666;2022-11-25T00:59:45;16.80;;;4.40;;
5553;SDS011;2800;49.528;8.666;2022-11-25T01:02:12;14.80;;;4.10;;
5553;SDS011;2800;49.528;8.666;2022-11-25T01:04:39;16.23;;;4.50;;
5553;SDS011;2800;49.528;8.666;2022-11-25T01:07:05;15.90;;;5.00;;
5553;SDS011;2800;49.528;8.666;2022-11-25T01:09:30;20.20;;;5.27;;
5553;SDS011;2800;49.528;8.666;2022-11-25T01:11:56;14.10;;;4.00;;
5553;SDS011;2800;49.528;8.666;2022-11-25T01:14:22;16.07;;;4.30;;
5553;SDS011;2800;49.528;8.666;2022-11-25T01:16:48;12.23;;;3.70;;
5553;SDS011;2800;49.528;8.666;2022-11-25T01:19:14;15.60;;;4.40;;
5553;SDS011;2800;49.528;8.666;2022-11-25T01:21:40;13.20;;;3.43;;
5553;SDS011;2800;49.528;8.666;2022-11-25T01:24:06;17.67;;;4.00;;
5553;SDS011;2800;49.528;8.666;2022-11-25T01:26:35;16.77;;;4.73;;
5553;SDS011;2800;49.528;8.666;2022-11-25T01:29:02;16.30;;;4.30;;
5553;SDS011;2800;49.528;8.666;2022-11-25T01:31:30;11.77;;;3.97;;
5553;SDS011;2800;49.528;8.666;2022-11-25T01:34:04;14.53;;;4.50;;
5553;SDS011;2800;49.528;8.666;2022-11-25T01:36:44;13.43;;;4.53;;
5553;SDS011;2800;49.528;8.666;2022-11-25T01:39:12;14.80;;;3.80;;
5553;SDS011;2800;49.528;8.666;2022-11-25T01:41:41;12.50;;;4.00;;
5553;SDS011;2800;49.528;8.666;2022-11-25T01:46:40;14.93;;;3.90;;
5553;SDS011;2800;49.528;8.666;2022-11-25T01:49:07;17.70;;;4.50;;
5553;SDS011;2800;49.528;8.666;2022-11-25T01:54:31;12.33;;;4.00;;
5553;SDS011;2800;49.528;8.666;2022-11-25T01:57:02;12.27;;;3.67;;
5553;SDS011;2800;49.528;8.666;2022-11-25T01:59:36;12.73;;;3.90;;
5553;SDS011;2800;49.528;8.666;2022-11-25T02:02:05;14.50;;;3.97;;
5553;SDS011;2800;49.528;8.666;2022-11-25T02:04:32;14.00;;;4.73;;
5553;SDS011;2800;49.528;8.666;2022-11-25T02:07:04;16.27;;;3.83;;
5553;SDS011;2800;49.528;8.666;2022-11-25T02:09:36;13.93;;;4.27;;
5553;SDS011;2800;49.528;8.666;2022-11-25T02:12:03;14.17;;;4.00;;
5553;SDS011;2800;49.528;8.666;2022-11-25T02:14:28;17.93;;;4.60;;
5553;SDS011;2800;49.528;8.666;2022-11-25T02:16:54;13.73;;;4.17;;
5553;SDS011;2800;49.528;8.666;2022-11-25T02:19:22;12.40;;;3.20;;
5553;SDS011;2800;49.528;8.666;2022-11-25T02:21:52;15.90;;;3.97;;
5553;SDS011;2800;49.528;8.666;2022-11-25T02:24:31;12.83;;;5.30;;
5553;SDS011;2800;49.528;8.666;2022-11-25T02:27:04;17.23;;;5.77;;
5553;SDS011;2800;49.528;8.666;2022-11-25T02:29:29;12.60;;;5.13;;
5553;SDS011;2800;49.528;8.666;2022-11-25T02:31:56;18.70;;;5.90;;
5553;SDS011;2800;49.528;8.666;2022-11-25T02:34:22;17.13;;;5.70;;
5553;SDS011;2800;49.528;8.666;2022-11-25T02:36:48;18.20;;;5.20;;
5553;SDS011;2800;49.528;8.666;2022-11-25T02:39:13;12.33;;;4.90;;
5553;SDS011;2800;49.528;8.666;2022-11-25T02:41:41;16.03;;;5.10;;
5553;SDS011;2800;49.528;8.666;2022-11-25T02:44:09;14.93;;;4.83;;
5553;SDS011;2800;49.528;8.666;2022-11-25T02:46:35;13.40;;;4.87;;
5553;SDS011;2800;49.528;8.666;2022-11-25T02:49:01;15.90;;;5.00;;
5553;SDS011;2800;49.528;8.666;2022-11-25T02:51:28;15.43;;;4.53;;
5553;SDS011;2800;49.528;8.666;2022-11-25T02:53:55;12.30;;;3.60;;
5553;SDS011;2800;49.528;8.666;2022-11-25T02:56:22;9.87;;;3.50;;
5553;SDS011;2800;49.528;8.666;2022-11-25T02:58:51;12.40;;;3.90;;
5553;SDS011;2800;49.528;8.666;2022-11-25T03:01:16;12.17;;;4.10;;
5553;SDS011;2800;49.528;8.666;2022-11-25T03:03:42;13.80;;;4.03;;
5553;SDS011;2800;49.528;8.666;2022-11-25T03:06:08;11.40;;;3.90;;
5553;SDS011;2800;49.528;8.666;2022-11-25T03:08:34;12.60;;;4.67;;
5553;SDS011;2800;49.528;8.666;2022-11-25T03:11:00;11.73;;;5.00;;
5553;SDS011;2800;49.528;8.666;2022-11-25T03:13:26;10.90;;;4.57;;
5553;SDS011;2800;49.528;8.666;2022-11-25T03:15:52;13.93;;;4.50;;
5553;SDS011;2800;49.528;8.666;2022-11-25T03:18:17;9.87;;;3.93;;
5553;SDS011;2800;49.528;8.666;2022-11-25T03:20:43;13.27;;;3.60;;
5553;SDS011;2800;49.528;8.666;2022-11-25T03:23:08;17.73;;;4.20;;
5553;SDS011;2800;49.528;8.666;2022-11-25T03:25:34;19.10;;;4.47;;
5553;SDS011;2800;49.528;8.666;2022-11-25T03:28:00;14.47;;;4.60;;
5553;SDS011;2800;49.528;8.666;2022-11-25T03:30:26;10.43;;;4.60;;
5553;SDS011;2800;49.528;8.666;2022-11-25T03:32:53;17.03;;;4.60;;
5553;SDS011;2800;49.528;8.666;2022-11-25T03:35:18;15.43;;;4.53;;
5553;SDS011;2800;49.528;8.666;2022-11-25T03:37:44;9.80;;;4.70;;
5553;SDS011;2800;49.528;8.666;2022-11-25T03:40:11;14.27;;;4.13;;
5553;SDS011;2800;49.528;8.666;2022-11-25T03:42:38;13.43;;;4.60;;
5553;SDS011;2800;49.528;8.666;2022-11-25T03:45:05;9.20;;;4.60;;
5553;SDS011;2800;49.528;8.666;2022-11-25T03:47:31;12.43;;;4.20;;
5553;SDS011;2800;49.528;8.666;2022-11-25T03:49:57;11.57;;;3.80;;
5553;SDS011;2800;49.528;8.666;2022-11-25T03:52:23;11.83;;;3.60;;
5553;SDS011;2800;49.528;8.666;2022-11-25T03:54:48;9.10;;;3.00;;
5553;SDS011;2800;49.528;8.666;2022-11-25T03:57:14;13.70;;;4.00;;
5553;SDS011;2800;49.528;8.666;2022-11-25T03:59:40;14.80;;;3.80;;
5553;SDS011;2800;49.528;8.666;2022-11-25T04:02:05;9.83;;;3.80;;
5553;SDS011;2800;49.528;8.666;2022-11-25T04:04:31;15.57;;;5.40;;
5553;SDS011;2800;49.528;8.666;2022-11-25T04:06:56;11.83;;;4.80;;
5553;SDS011;2800;49.528;8.666;2022-11-25T04:09:22;11.17;;;5.07;;
5553;SDS011;2800;49.528;8.666;2022-11-25T04:11:49;13.50;;;5.67;;
5553;SDS011;2800;49.528;8.666;2022-11-25T04:14:34;13.40;;;6.20;;
5553;SDS011;2800;49.528;8.666;2022-11-25T04:17:00;11.80;;;4.97;;
5553;SDS011;2800;49.528;8.666;2022-11-25T04:19:25;17.23;;;5.83;;
5553;SDS011;2800;49.528;8.666;2022-11-25T04:21:51;15.40;;;5.50;;
5553;SDS011;2800;49.528;8.666;2022-11-25T04:24:17;12.90;;;5.67;;
5553;SDS011;2800;49.528;8.666;2022-11-25T04:26:43;9.87;;;4.87;;
5553;SDS011;2800;49.528;8.666;2022-11-25T04:29:08;12.87;;;4.83;;
5553;SDS011;2800;49.528;8.666;2022-11-25T04:31:34;13.67;;;4.30;;
5553;SDS011;2800;49.528;8.666;2022-11-25T04:34:00;12.07;;;4.63;;
5553;SDS011;2800;49.528;8.666;2022-11-25T04:36:25;14.80;;;6.13;;
5553;SDS011;2800;49.528;8.666;2022-11-25T04:38:51;13.37;;;4.80;;
5553;SDS011;2800;49.528;8.666;2022-11-25T04:41:16;13.80;;;4.90;;
5553;SDS011;2800;49.528;8.666;2022-11-25T04:43:42;15.67;;;5.13;;
5553;SDS011;2800;49.528;8.666;2022-11-25T04:46:08;13.33;;;5.10;;
5553;SDS011;2800;49.528;8.666;2022-11-25T04:48:38;15.10;;;4.90;;
5553;SDS011;2800;49.528;8.666;2022-11-25T04:51:04;19.80;;;4.97;;
5553;SDS011;2800;49.528;8.666;2022-11-25T04:53:29;16.60;;;5.10;;
5553;SDS011;2800;49.528;8.666;2022-11-25T04:55:55;12.80;;;4.90;;
5553;SDS011;2800;49.528;8.666;2022-11-25T04:58:20;12.07;;;5.03;;
5553;SDS011;2800;49.528;8.666;2022-11-25T05:01:06;13.13;;;5.20;;
5553;SDS011;2800;49.528;8.666;2022-11-25T05:03:31;17.90;;;6.07;;
5553;SDS011;2800;49.528;8.666;2022-11-25T05:05:57;9.90;;;4.37;;
5553;SDS011;2800;49.528;8.666;2022-11-25T05:08:22;10.97;;;4.40;;
5553;SDS011;2800;49.528;8.666;2022-11-25T05:10:48;14.03;;;4.03;;
5553;SDS011;2800;49.528;8.666;2022-11-25T05:13:13;13.90;;;4.17;;
5553;SDS011;2800;49.528;8.666;2022-11-25T05:15:39;15.60;;;3.70;;
5553;SDS011;2800;49.528;8.666;2022-11-25T05:18:04;11.10;;;3.77;;
5553;SDS011;2800;49.528;8.666;2022-11-25T05:20:30;12.00;;;4.30;;
5553;SDS011;2800;49.528;8.666;2022-11-25T05:22:55;10.67;;;3.90;;
5553;SDS011;2800;49.528;8.666;2022-11-25T05:25:21;8.83;;;4.30;;
5553;SDS011;2800;49.528;8.666;2022-11-25T05:27:48;12.60;;;4.80;;
5553;SDS011;2800;49.528;8.666;2022-11-25T05:30:14;12.33;;;3.83;;
5553;SDS011;2800;49.528;8.666;2022-11-25T05:32:39;10.83;;;3.60;;
5553;SDS011;2800;49.528;8.666;2022-11-25T05:35:05;12.73;;;3.53;;
5553;SDS011;2800;49.528;8.666;2022-11-25T05:37:31;11.47;;;3.60;;
5553;SDS011;2800;49.528;8.666;2022-11-25T05:39:56;9.07;;;3.30;;
5553;SDS011;2800;49.528;8.666;2022-11-25T05:42:22;11.20;;;3.70;;
5553;SDS011;2800;49.528;8.666;2022-11-25T05:44:47;15.20;;;4.10;;
5553;SDS011;2800;49.528;8.666;2022-11-25T05:47:13;10.53;;;3.80;;
5553;SDS011;2800;49.528;8.666;2022-11-25T05:49:39;13.27;;;4.80;;
5553;SDS011;2800;49.528;8.666;2022-11-25T05:52:04;11.50;;;5.60;;
5553;SDS011;2800;49.528;8.666;2022-11-25T05:54:30;14.33;;;6.07;;
5553;SDS011;2800;49.528;8.666;2022-11-25T05:56:55;12.40;;;6.00;;
5553;SDS011;2800;49.528;8.666;2022-11-25T05:59:21;18.00;;;6.60;;
5553;SDS011;2800;49.528;8.666;2022-11-25T06:01:46;19.10;;;6.80;;
5553;SDS011;2800;49.528;8.666;2022-11-25T06:04:12;12.37;;;5.90;;
5553;SDS011;2800;49.528;8.666;2022-11-25T06:06:37;14.50;;;5.97;;
5553;SDS011;2800;49.528;8.666;2022-11-25T06:09:03;13.87;;;6.03;;
5553;SDS011;2800;49.528;8.666;2022-11-25T06:11:28;13.33;;;5.83;;
5553;SDS011;2800;49.528;8.666;2022-11-25T06:13:55;17.50;;;5.70;;
5553;SDS011;2800;49.528;8.666;2022-11-25T06:16:21;17.60;;;5.90;;
5553;SDS011;2800;49.528;8.666;2022-11-25T06:18:47;30.43;;;19.27;;
5553;SDS011;2800;49.528;8.666;2022-11-25T06:21:13;14.87;;;8.10;;
5553;SDS011;2800;49.528;8.666;2022-11-25T06:23:39;15.93;;;6.10;;
5553;SDS011;2800;49.528;8.666;2022-11-25T06:26:15;12.80;;;6.33;;
5553;SDS011;2800;49.528;8.666;2022-11-25T06:28:45;13.60;;;6.97;;
5553;SDS011;2800;49.528;8.666;2022-11-25T06:31:12;12.30;;;6.33;;
5553;SDS011;2800;49.528;8.666;2022-11-25T06:33:39;14.13;;;5.43;;
5553;SDS011;2800;49.528;8.666;2022-11-25T06:36:06;15.30;;;5.90;;
5553;SDS011;2800;49.528;8.666;2022-11-25T06:38:37;9.40;;;4.60;;
5553;SDS011;2800;49.528;8.666;2022-11-25T06:41:03;14.53;;;5.00;;
5553;SDS011;2800;49.528;8.666;2022-11-25T06:43:30;15.37;;;5.70;;
5553;SDS011;2800;49.528;8.666;2022-11-25T06:46:09;14.20;;;6.77;;
5553;SDS011;2800;49.528;8.666;2022-11-25T06:48:36;18.60;;;7.03;;
5553;SDS011;2800;49.528;8.666;2022-11-25T06:51:03;20.70;;;9.50;;
5553;SDS011;2800;49.528;8.666;2022-11-25T06:53:31;17.60;;;8.63;;
5553;SDS011;2800;49.528;8.666;2022-11-25T06:58:35;17.33;;;7.50;;
5553;SDS011;2800;49.528;8.666;2022-11-25T07:01:13;14.17;;;7.33;;
5553;SDS011;2800;49.528;8.666;2022-11-25T07:03:43;18.90;;;7.10;;
5553;SDS011;2800;49.528;8.666;2022-11-25T07:06:13;15.53;;;6.00;;
5553;SDS011;2800;49.528;8.666;2022-11-25T07:08:40;12.90;;;6.03;;
5553;SDS011;2800;49.528;8.666;2022-11-25T07:11:10;11.97;;;5.13;;
5553;SDS011;2800;49.528;8.666;2022-11-25T07:13:41;11.83;;;5.30;;
5553;SDS011;2800;49.528;8.666;2022-11-25T07:16:07;13.63;;;5.83;;
5553;SDS011;2800;49.528;8.666;2022-11-25T07:18:35;12.47;;;5.40;;
5553;SDS011;2800;49.528;8.666;2022-11-25T07:21:09;16.40;;;6.20;;
5553;SDS011;2800;49.528;8.666;2022-11-25T07:23:40;14.70;;;6.23;;
5553;SDS011;2800;49.528;8.666;2022-11-25T07:26:08;21.30;;;5.70;;
5553;SDS011;2800;49.528;8.666;2022-11-25T07:28:45;18.73;;;6.03;;
5553;SDS011;2800;49.528;8.666;2022-11-25T07:31:22;17.90;;;6.70;;
5553;SDS011;2800;49.528;8.666;2022-11-25T07:33:53;13.47;;;6.60;;
5553;SDS011;2800;49.528;8.666;2022-11-25T07:36:27;19.63;;;6.83;;
5553;SDS011;2800;49.528;8.666;2022-11-25T07:38:54;14.40;;;5.07;;
5553;SDS011;2800;49.528;8.666;2022-11-25T07:41:22;15.73;;;5.50;;
5553;SDS011;2800;49.528;8.666;2022-11-25T07:43:50;12.70;;;5.60;;
5553;SDS011;2800;49.528;8.666;2022-11-25T07:46:20;8.93;;;4.10;;
5553;SDS011;2800;49.528;8.666;2022-11-25T07:48:50;11.60;;;4.33;;
5553;SDS011;2800;49.528;8.666;2022-11-25T07:51:21;11.13;;;4.37;;
5553;SDS011;2800;49.528;8.666;2022-11-25T07:53:54;10.67;;;3.80;;
5553;SDS011;2800;49.528;8.666;2022-11-25T07:56:22;9.67;;;3.40;;
5553;SDS011;2800;49.528;8.666;2022-11-25T07:58:48;11.73;;;3.93;;
5553;SDS011;2800;49.528;8.666;2022-11-25T08:01:14;8.17;;;3.57;;
5553;SDS011;2800;49.528;8.666;2022-11-25T08:03:41;10.70;;;3.10;;
5553;SDS011;2800;49.528;8.666;2022-11-25T08:06:09;9.87;;;3.90;;
5553;SDS011;2800;49.528;8.666;2022-11-25T08:08:36;9.50;;;2.93;;
5553;SDS011;2800;49.528;8.666;2022-11-25T08:11:09;9.33;;;3.30;;
5553;SDS011;2800;49.528;8.666;2022-11-25T08:13:40;7.70;;;3.00;;
5553;SDS011;2800;49.528;8.666;2022-11-25T08:16:06;10.23;;;3.67;;
5553;SDS011;2800;49.528;8.666;2022-11-25T08:18:32;7.63;;;3.17;;
5553;SDS011;2800;49.528;8.666;2022-11-25T08:20:59;8.13;;;3.50;;
5553;SDS011;2800;49.528;8.666;2022-11-25T08:23:29;10.17;;;3.17;;
5553;SDS011;2800;49.528;8.666;2022-11-25T08:25:56;9.03;;;3.60;;
5553;SDS011;2800;49.528;8.666;2022-11-25T08:28:22;14.30;;;4.03;;
5553;SDS011;2800;49.528;8.666;2022-11-25T08:30:48;9.93;;;3.90;;
5553;SDS011;2800;49.528;8.666;2022-11-25T08:33:14;8.57;;;3.30;;
5553;SDS011;2800;49.528;8.666;2022-11-25T08:35:40;13.50;;;3.70;;
5553;SDS011;2800;49.528;8.666;2022-11-25T08:38:06;9.43;;;4.23;;
5553;SDS011;2800;49.528;8.666;2022-11-25T08:40:33;10.03;;;4.17;;
5553;SDS011;2800;49.528;8.666;2022-11-25T08:43:00;9.93;;;3.27;;
5553;SDS011;2800;49.528;8.666;2022-11-25T08:45:26;10.00;;;3.47;;
5553;SDS011;2800;49.528;8.666;2022-11-25T08:47:52;10.20;;;4.00;;
5553;SDS011;2800;49.528;8.666;2022-11-25T08:50:18;9.60;;;3.57;;
5553;SDS011;2800;49.528;8.666;2022-11-25T08:52:44;11.90;;;4.07;;
5553;SDS011;2800;49.528;8.666;2022-11-25T08:55:10;8.77;;;3.87;;
5553;SDS011;2800;49.528;8.666;2022-11-25T08:57:35;10.83;;;3.80;;
5553;SDS011;2800;49.528;8.666;2022-11-25T09:00:01;10.57;;;3.83;;
5553;SDS011;2800;49.528;8.666;2022-11-25T09:02:28;13.20;;;3.73;;
5553;SDS011;2800;49.528;8.666;2022-11-25T09:04:53;10.90;;;4.23;;
5553;SDS011;2800;49.528;8.666;2022-11-25T09:07:19;12.27;;;4.40;;
5553;SDS011;2800;49.528;8.666;2022-11-25T09:09:44;11.00;;;4.70;;
5553;SDS011;2800;49.528;8.666;2022-11-25T09:12:10;12.23;;;4.30;;
5553;SDS011;2800;49.528;8.666;2022-11-25T09:14:35;11.37;;;4.37;;
5553;SDS011;2800;49.528;8.666;2022-11-25T09:17:01;10.13;;;4.00;;
5553;SDS011;2800;49.528;8.666;2022-11-25T09:19:27;9.87;;;4.00;;
5553;SDS011;2800;49.528;8.666;2022-11-25T09:21:53;10.10;;;4.07;;
5553;SDS011;2800;49.528;8.666;2022-11-25T09:24:19;8.97;;;3.80;;
5553;SDS011;2800;49.528;8.666;2022-11-25T09:26:44;10.63;;;4.13;;
5553;SDS011;2800;49.528;8.666;2022-11-25T09:29:11;8.30;;;4.10;;
5553;SDS011;2800;49.528;8.666;2022-11-25T09:31:37;13.77;;;5.00;;
5553;SDS011;2800;49.528;8.666;2022-11-25T09:34:03;11.80;;;4.43;;
5553;SDS011;2800;49.528;8.666;2022-11-25T09:36:28;10.83;;;4.47;;
5553;SDS011;2800;49.528;8.666;2022-11-25T09:38:54;13.30;;;5.07;;
5553;SDS011;2800;49.528;8.666;2022-11-25T09:41:24;12.87;;;4.87;;
5553;SDS011;2800;49.528;8.666;2022-11-25T09:44:31;11.87;;;4.73;;
5553;SDS011;2800;49.528;8.666;2022-11-25T09:47:22;11.50;;;4.67;;
5553;SDS011;2800;49.528;8.666;2022-11-25T09:49:58;9.10;;;4.70;;
5553;SDS011;2800;49.528;8.666;2022-11-25T09:52:45;13.47;;;6.20;;
5553;SDS011;2800;49.528;8.666;2022-11-25T09:55:24;12.23;;;5.50;;
5553;SDS011;2800;49.528;8.666;2022-11-25T10:00:43;12.17;;;5.40;;
5553;SDS011;2800;49.528;8.666;2022-11-25T10:06:06;13.37;;;6.10;;
5553;SDS011;2800;49.528;8.666;2022-11-25T10:08:47;14.20;;;5.87;;
5553;SDS011;2800;49.528;8.666;2022-11-25T10:16:32;13.23;;;5.53;;
5553;SDS011;2800;49.528;8.666;2022-11-25T10:21:47;9.70;;;5.83;;
5553;SDS011;2800;49.528;8.666;2022-11-25T10:24:13;12.13;;;5.10;;
5553;SDS011;2800;49.528;8.666;2022-11-25T10:26:44;14.30;;;6.13;;
5553;SDS011;2800;49.528;8.666;2022-11-25T10:29:25;10.03;;;5.30;;
5553;SDS011;2800;49.528;8.666;2022-11-25T10:34:53;18.93;;;5.60;;
5553;SDS011;2800;49.528;8.666;2022-11-25T10:37:25;11.90;;;5.40;;
5553;SDS011;2800;49.528;8.666;2022-11-25T10:39:54;17.27;;;5.90;;
5553;SDS011;2800;49.528;8.666;2022-11-25T10:42:21;10.07;;;5.67;;
5553;SDS011;2800;49.528;8.666;2022-11-25T10:44:48;17.27;;;6.43;;
5553;SDS011;2800;49.528;8.666;2022-11-25T10:47:57;14.30;;;5.50;;
5553;SDS011;2800;49.528;8.666;2022-11-25T10:52:47;10.77;;;6.00;;
5553;SDS011;2800;49.528;8.666;2022-11-25T10:55:20;15.03;;;7.60;;
5553;SDS011;2800;49.528;8.666;2022-11-25T10:57:51;13.50;;;8.30;;
5553;SDS011;2800;49.528;8.666;2022-11-25T11:00:33;12.57;;;6.73;;
5553;SDS011;2800;49.528;8.666;2022-11-25T11:03:12;11.97;;;6.80;;
5553;SDS011;2800;49.528;8.666;2022-11-25T11:05:47;14.60;;;6.60;;
5553;SDS011;2800;49.528;8.666;2022-11-25T11:08:15;12.77;;;5.70;;
5553;SDS011;2800;49.528;8.666;2022-11-25T11:10:47;20.03;;;6.47;;
5553;SDS011;2800;49.528;8.666;2022-11-25T11:13:42;13.27;;;6.93;;
5553;SDS011;2800;49.528;8.666;2022-11-25T11:16:19;18.77;;;8.47;;
5553;SDS011;2800;49.528;8.666;2022-11-25T11:18:54;12.33;;;7.27;;
5553;SDS011;2800;49.528;8.666;2022-11-25T11:21:21;16.07;;;6.30;;
5553;SDS011;2800;49.528;8.666;2022-11-25T11:23:59;14.70;;;6.10;;
5553;SDS011;2800;49.528;8.666;2022-11-25T11:26:32;14.20;;;6.70;;
5553;SDS011;2800;49.528;8.666;2022-11-25T11:29:01;15.97;;;6.90;;
5553;SDS011;2800;49.528;8.666;2022-11-25T11:31:34;12.20;;;5.97;;
5553;SDS011;2800;49.528;8.666;2022-11-25T11:42:31;15.13;;;6.93;;
5553;SDS011;2800;49.528;8.666;2022-11-25T11:48:06;12.73;;;6.83;;
5553;SDS011;2800;49.528;8.666;2022-11-25T11:50:47;13.93;;;7.50;;
5553;SDS011;2800;49.528;8.666;2022-11-25T11:55:58;12.43;;;7.23;;
5553;SDS011;2800;49.528;8.666;2022-11-25T12:01:35;18.33;;;6.87;;
5553;SDS011;2800;49.528;8.666;2022-11-25T12:04:14;21.27;;;7.73;;
5553;SDS011;2800;49.528;8.666;2022-11-25T12:06:52;17.80;;;6.67;;
5553;SDS011;2800;49.528;8.666;2022-11-25T12:09:26;14.07;;;6.53;;
5553;SDS011;2800;49.528;8.666;2022-11-25T12:11:57;15.57;;;8.70;;
5553;SDS011;2800;49.528;8.666;2022-11-25T12:14:40;12.70;;;6.50;;
5553;SDS011;2800;49.528;8.666;2022-11-25T12:17:14;14.40;;;6.57;;
5553;SDS011;2800;49.528;8.666;2022-11-25T12:19:46;15.93;;;6.90;;
5553;SDS011;2800;49.528;8.666;2022-11-25T12:22:29;18.17;;;7.40;;
5553;SDS011;2800;49.528;8.666;2022-11-25T12:28:11;19.27;;;9.93;;
5553;SDS011;2800;49.528;8.666;2022-11-25T12:30:52;14.47;;;7.27;;
5553;SDS011;2800;49.528;8.666;2022-11-25T12:36:30;14.17;;;6.80;;
5553;SDS011;2800;49.528;8.666;2022-11-25T12:39:17;11.50;;;6.47;;
5553;SDS011;2800;49.528;8.666;2022-11-25T12:42:01;20.53;;;7.50;;
5553;SDS011;2800;49.528;8.666;2022-11-25T12:44:30;11.60;;;6.20;;
5553;SDS011;2800;49.528;8.666;2022-11-25T12:47:07;15.10;;;6.90;;
5553;SDS011;2800;49.528;8.666;2022-11-25T12:49:42;16.97;;;6.63;;
5553;SDS011;2800;49.528;8.666;2022-11-25T12:52:15;16.03;;;6.80;;
5553;SDS011;2800;49.528;8.666;2022-11-25T12:55:22;14.43;;;6.80;;
5553;SDS011;2800;49.528;8.666;2022-11-25T13:03:33;14.53;;;8.00;;
5553;SDS011;2800;49.528;8.666;2022-11-25T13:12:22;14.77;;;7.97;;
5553;SDS011;2800;49.528;8.666;2022-11-25T13:17:17;16.80;;;8.07;;
5553;SDS011;2800;49.528;8.666;2022-11-25T13:19:42;15.23;;;8.17;;
5553;SDS011;2800;49.528;8.666;2022-11-25T13:24:46;13.90;;;7.07;;
5553;SDS011;2800;49.528;8.666;2022-11-25T13:27:31;17.60;;;7.10;;
5553;SDS011;2800;49.528;8.666;2022-11-25T13:30:04;16.50;;;7.90;;
5553;SDS011;2800;49.528;8.666;2022-11-25T13:32:50;19.50;;;8.77;;
5553;SDS011;2800;49.528;8.666;2022-11-25T13:37:50;19.20;;;8.77;;
5553;SDS011;2800;49.528;8.666;2022-11-25T13:42:53;19.77;;;9.70;;
5553;SDS011;2800;49.528;8.666;2022-11-25T13:45:24;19.73;;;11.83;;
5553;SDS011;2800;49.528;8.666;2022-11-25T13:48:25;16.97;;;9.80;;
5553;SDS011;2800;49.528;8.666;2022-11-25T13:53:40;17.20;;;10.23;;
5553;SDS011;2800;49.528;8.666;2022-11-25T13:59:29;16.10;;;8.30;;
5553;SDS011;2800;49.528;8.666;2022-11-25T14:04:13;13.67;;;7.50;;
5553;SDS011;2800;49.528;8.666;2022-11-25T14:06:46;15.53;;;7.40;;
5553;SDS011;2800;49.528;8.666;2022-11-25T14:09:45;16.87;;;6.73;;
5553;SDS011;2800;49.528;8.666;2022-11-25T14:12:38;12.50;;;6.47;;
5553;SDS011;2800;49.528;8.666;2022-11-25T14:21:17;15.90;;;6.30;;
5553;SDS011;2800;49.528;8.666;2022-11-25T14:26:51;15.63;;;6.57;;
5553;SDS011;2800;49.528;8.666;2022-11-25T14:29:22;15.13;;;6.20;;
5553;SDS011;2800;49.528;8.666;2022-11-25T14:32:15;15.03;;;6.80;;
5553;SDS011;2800;49.528;8.666;2022-11-25T14:37:19;14.87;;;6.37;;
5553;SDS011;2800;49.528;8.666;2022-11-25T14:39:53;17.50;;;6.77;;
5553;SDS011;2800;49.528;8.666;2022-11-25T14:42:22;13.40;;;6.00;;
5553;SDS011;2800;49.528;8.666;2022-11-25T14:44:53;12.60;;;6.70;;
5553;SDS011;2800;49.528;8.666;2022-11-25T14:47:27;13.87;;;7.23;;
5553;SDS011;2800;49.528;8.666;2022-11-25T14:49:55;14.10;;;6.10;;
5553;SDS011;2800;49.528;8.666;2022-11-25T14:54:51;13.07;;;6.50;;
5553;SDS011;2800;49.528;8.666;2022-11-25T14:57:22;16.33;;;6.50;;
5553;SDS011;2800;49.528;8.666;2022-11-25T14:59:50;18.53;;;7.87;;
5553;SDS011;2800;49.528;8.666;2022-11-25T15:02:24;12.47;;;7.20;;
5553;SDS011;2800;49.528;8.666;2022-11-25T15:04:52;16.77;;;6.97;;
5553;SDS011;2800;49.528;8.666;2022-11-25T15:07:25;15.17;;;7.77;;
5553;SDS011;2800;49.528;8.666;2022-11-25T15:09:52;21.47;;;10.03;;
5553;SDS011;2800;49.528;8.666;2022-11-25T15:12:18;29.27;;;10.67;;
5553;SDS011;2800;49.528;8.666;2022-11-25T15:14:49;15.00;;;7.13;;
5553;SDS011;2800;49.528;8.666;2022-11-25T15:17:24;16.67;;;9.10;;
5553;SDS011;2800;49.528;8.666;2022-11-25T15:19:52;18.50;;;7.50;;
5553;SDS011;2800;49.528;8.666;2022-11-25T15:22:20;15.93;;;8.53;;
5553;SDS011;2800;49.528;8.666;2022-11-25T15:24:46;18.00;;;7.97;;
5553;SDS011;2800;49.528;8.666;2022-11-25T15:27:23;15.77;;;7.50;;
5553;SDS011;2800;49.528;8.666;2022-11-25T15:29:51;18.67;;;7.90;;
5553;SDS011;2800;49.528;8.666;2022-11-25T15:32:18;12.43;;;7.37;;
5553;SDS011;2800;49.528;8.666;2022-11-25T15:34:56;16.50;;;7.30;;
5553;SDS011;2800;49.528;8.666;2022-11-25T15:37:24;15.20;;;7.10;;
5553;SDS011;2800;49.528;8.666;2022-11-25T15:42:53;15.57;;;7.63;;
5553;SDS011;2800;49.528;8.666;2022-11-25T15:45:19;14.47;;;7.90;;
5553;SDS011;2800;49.528;8.666;2022-11-25T15:47:45;17.30;;;7.23;;
5553;SDS011;2800;49.528;8.666;2022-11-25T15:50:21;14.47;;;7.20;;
5553;SDS011;2800;49.528;8.666;2022-11-25T15:52:53;19.27;;;7.10;;
5553;SDS011;2800;49.528;8.666;2022-11-25T15:55:32;15.70;;;7.07;;
5553;SDS011;2800;49.528;8.666;2022-11-25T15:58:02;15.90;;;7.07;;
5553;SDS011;2800;49.528;8.666;2022-11-25T16:00:31;18.53;;;6.93;;
5553;SDS011;2800;49.528;8.666;2022-11-25T16:02:57;15.53;;;7.30;;
5553;SDS011;2800;49.528;8.666;2022-11-25T16:05:28;22.20;;;9.00;;
5553;SDS011;2800;49.528;8.666;2022-11-25T16:08:19;17.37;;;8.03;;
5553;SDS011;2800;49.528;8.666;2022-11-25T16:10:54;16.10;;;7.93;;
5553;SDS011;2800;49.528;8.666;2022-11-25T16:13:31;17.13;;;7.90;;
5553;SDS011;2800;49.528;8.666;2022-11-25T16:21:21;21.60;;;8.70;;
5553;SDS011;2800;49.528;8.666;2022-11-25T16:23:55;18.20;;;9.10;;
5553;SDS011;2800;49.528;8.666;2022-11-25T16:26:32;22.00;;;10.70;;
5553;SDS011;2800;49.528;8.666;2022-11-25T16:29:09;16.60;;;7.60;;
5553;SDS011;2800;49.528;8.666;2022-11-25T16:31:41;22.40;;;10.63;;
5553;SDS011;2800;49.528;8.666;2022-11-25T16:34:17;17.57;;;8.57;;
5553;SDS011;2800;49.528;8.666;2022-11-25T16:36:44;19.20;;;9.30;;
5553;SDS011;2800;49.528;8.666;2022-11-25T16:39:10;15.90;;;8.27;;
5553;SDS011;2800;49.528;8.666;2022-11-25T16:41:36;21.53;;;6.80;;
5553;SDS011;2800;49.528;8.666;2022-11-25T16:44:03;17.83;;;7.47;;
5553;SDS011;2800;49.528;8.666;2022-11-25T16:46:35;19.20;;;8.73;;
5553;SDS011;2800;49.528;8.666;2022-11-25T16:49:03;20.17;;;8.27;;
5553;SDS011;2800;49.528;8.666;2022-11-25T16:51:36;20.00;;;9.87;;
5553;SDS011;2800;49.528;8.666;2022-11-25T16:54:01;21.30;;;9.23;;
5553;SDS011;2800;49.528;8.666;2022-11-25T16:56:28;18.87;;;7.57;;
5553;SDS011;2800;49.528;8.666;2022-11-25T16:58:54;17.80;;;8.53;;
5553;SDS011;2800;49.528;8.666;2022-11-25T17:01:22;18.30;;;8.93;;